Terminal Aerodrome Forecast
Issued by NWS

Home | Current Version | Previous Version | Text Only | Print | Product List | Glossary On
Versions: 1 2 3 4 5 6 7 8 9 10 11 12 13 14 15 16 17 18 19 20 21 22 23 24
000
FTUS43 KILX 120022 AAA
TAFCMI
TAF AMD
KCMI 120022Z 1200/1224 29017G30KT P6SM OVC050
     FM120200 32017G32KT P6SM OVC020
     FM120400 33020G33KT P6SM OVC012
     FM120700 32019G31KT P6SM BKN020
     FM121200 32017G27KT P6SM SCT025
     FM122300 31011KT P6SM FEW200=

USA.gov is the U.S. government's official web portal to all federal, state and local government web resources and services.